Time;durP1;ratioP1;P1;durP2;ratioP2;P2;SDS_P1;SDS_P2;PMS_P1;PMS_P2;Temp;Humidity;BMP_temperature;BMP_pressure;BME280_temperature;BME280_humidity;BME280_pressure;Samples;Min_cycle;Max_cycle;Signal;HPM_P1;HPM_P2
2022/11/03 00:00:31;;;;;;;23.80;16.02;;;16.40;85.80;;;;;;10904751;32;20020;-73
2022/11/03 00:06:56;;;;;;;20.33;14.07;;;16.50;85.90;;;;;;10904578;32;20038;-73
2022/11/03 00:12:57;;;;;;;16.77;12.27;;;16.50;86.00;;;;;;10904907;32;20054;-73
2022/11/03 00:19:00;;;;;;;20.55;16.12;;;16.50;86.00;;;;;;10900098;32;20360;-73
2022/11/03 00:25:02;;;;;;;17.85;12.55;;;16.50;85.90;;;;;;10806708;27;20033;-73
2022/11/03 00:31:24;;;;;;;15.98;11.50;;;16.40;85.90;;;;;;10750961;32;20044;-73
2022/11/03 00:37:26;;;;;;;21.90;13.32;;;16.40;85.80;;;;;;10750980;33;20470;-73
2022/11/03 00:43:30;;;;;;;22.50;12.65;;;16.50;85.90;;;;;;10737680;33;20058;-73
2022/11/03 00:49:32;;;;;;;17.02;12.23;;;16.40;86.00;;;;;;10750565;33;20024;-73
2022/11/03 00:55:34;;;;;;;25.67;14.43;;;16.40;85.90;;;;;;10750387;33;20316;-73
2022/11/03 01:01:42;;;;;;;20.20;14.77;;;16.40;85.90;;;;;;10750207;33;20079;-73
2022/11/03 01:07:53;;;;;;;24.17;13.77;;;16.40;86.00;;;;;;10746362;33;20028;-72
2022/11/03 01:13:55;;;;;;;18.08;13.82;;;16.30;85.90;;;;;;10750038;32;20393;-73
2022/11/03 01:19:57;;;;;;;22.37;16.62;;;16.30;86.10;;;;;;10749898;33;20016;-73
2022/11/03 01:26:06;;;;;;;16.10;12.43;;;16.30;86.10;;;;;;10736778;33;20020;-73
2022/11/03 01:32:08;;;;;;;25.60;14.60;;;16.30;86.10;;;;;;10749475;33;20051;-73
2022/11/03 01:38:13;;;;;;;22.40;13.02;;;16.30;86.30;;;;;;10754269;33;20024;-72
2022/11/03 01:44:15;;;;;;;19.70;13.02;;;16.30;86.30;;;;;;10755595;33;20020;-73
2022/11/03 01:50:18;;;;;;;27.83;20.37;;;16.20;86.20;;;;;;10755485;33;20044;-73
2022/11/03 01:56:21;;;;;;;24.42;18.12;;;16.30;86.30;;;;;;10755119;33;20055;-73
2022/11/03 02:02:44;;;;;;;13.45;10.63;;;16.30;86.30;;;;;;10751355;33;20051;-73
2022/11/03 02:08:55;;;;;;;21.08;15.65;;;16.30;86.20;;;;;;10754816;33;20047;-73
2022/11/03 02:15:02;;;;;;;19.65;14.40;;;16.20;86.10;;;;;;10754562;33;20423;-73
2022/11/03 02:21:25;;;;;;;24.77;16.23;;;16.20;86.20;;;;;;10754500;33;20025;-73
2022/11/03 02:27:28;;;;;;;20.35;14.35;;;16.20;86.20;;;;;;10754311;33;20028;-73
2022/11/03 02:33:40;;;;;;;13.77;12.07;;;16.20;86.20;;;;;;10750053;33;20033;-73
2022/11/03 02:40:05;;;;;;;20.05;12.73;;;16.20;86.20;;;;;;10753952;33;20051;-73
2022/11/03 02:46:07;;;;;;;20.67;15.50;;;16.20;86.20;;;;;;10753826;33;20075;-73
2022/11/03 02:52:35;;;;;;;25.05;17.17;;;16.20;86.20;;;;;;10753751;33;20028;-73
2022/11/03 02:59:01;;;;;;;23.12;15.98;;;16.10;86.30;;;;;;10571691;33;20146;-73
2022/11/03 03:05:22;;;;;;;20.77;15.77;;;16.00;86.60;;;;;;10570561;32;20069;-73
2022/11/03 03:11:50;;;;;;;22.55;14.52;;;16.10;86.60;;;;;;10570216;33;20026;-73
2022/11/03 03:18:02;;;;;;;17.48;12.18;;;16.10;86.50;;;;;;10570146;33;20034;-73
2022/11/03 03:24:11;;;;;;;15.75;12.85;;;16.10;86.40;;;;;;10569889;33;20057;-73
2022/11/03 03:30:14;;;;;;;17.25;13.43;;;16.10;86.30;;;;;;10569709;33;20030;-73
2022/11/03 03:36:18;;;;;;;17.40;11.77;;;16.00;86.30;;;;;;10732984;33;20064;-73
2022/11/03 03:42:23;;;;;;;24.35;17.20;;;16.00;86.30;;;;;;10736344;33;20059;-73
2022/11/03 03:48:25;;;;;;;24.58;15.13;;;16.10;86.40;;;;;;10750829;33;20070;-73
2022/11/03 03:54:32;;;;;;;12.18;9.18;;;16.00;86.30;;;;;;10751873;33;20036;-73
2022/11/03 04:00:34;;;;;;;15.32;12.93;;;16.00;86.40;;;;;;10751273;33;20024;-73
2022/11/03 04:07:45;;;;;;;19.02;14.60;;;16.00;86.40;;;;;;10751657;33;20029;-73
2022/11/03 04:26:17;;;;;;;19.17;11.70;;;16.00;86.40;;;;;;10751161;33;20389;-73
2022/11/03 04:32:19;;;;;;;16.65;11.75;;;16.00;86.40;;;;;;10750927;33;20040;-73
2022/11/03 04:38:23;;;;;;;12.88;8.70;;;16.00;86.40;;;;;;10750944;33;20052;-73
2022/11/03 04:44:27;;;;;;;14.73;12.05;;;16.00;86.40;;;;;;10750786;33;20025;-73
2022/11/03 04:50:29;;;;;;;12.20;9.27;;;16.00;86.50;;;;;;10737356;33;20033;-73
2022/11/03 04:56:32;;;;;;;10.80;8.05;;;16.00;86.40;;;;;;10750299;33;20071;-73
2022/11/03 05:02:34;;;;;;;14.20;9.05;;;15.90;86.40;;;;;;10750438;33;20039;-73
2022/11/03 05:08:36;;;;;;;12.68;7.65;;;15.80;86.40;;;;;;10750288;33;20040;-73
2022/11/03 05:14:38;;;;;;;16.10;9.63;;;15.80;86.50;;;;;;10752377;33;20025;-73
2022/11/03 05:21:02;;;;;;;17.50;11.00;;;15.80;86.40;;;;;;10755523;32;20032;-73
2022/11/03 05:27:09;;;;;;;14.32;10.43;;;15.80;86.50;;;;;;10743051;33;20039;-73
2022/11/03 05:33:18;;;;;;;16.37;10.98;;;15.80;86.40;;;;;;10755826;33;20032;-73
2022/11/03 05:39:39;;;;;;;13.60;10.00;;;15.80;86.50;;;;;;10755793;33;20017;-73
2022/11/03 05:45:42;;;;;;;12.68;8.98;;;15.80;86.50;;;;;;10755641;33;20114;-73
2022/11/03 05:51:45;;;;;;;18.15;12.48;;;15.80;86.40;;;;;;10755377;33;20167;-73
2022/11/03 05:57:48;;;;;;;14.02;11.75;;;15.80;86.50;;;;;;10755200;33;20321;-73
2022/11/03 06:03:50;;;;;;;18.67;12.85;;;15.80;86.60;;;;;;10754980;33;20029;-73
2022/11/03 06:09:52;;;;;;;21.30;12.05;;;15.80;86.50;;;;;;10754760;33;20022;-73
2022/11/03 06:16:04;;;;;;;16.12;9.80;;;15.80;86.50;;;;;;10754639;33;20033;-72
2022/11/03 06:22:44;;;;;;;15.68;11.48;;;15.80;86.50;;;;;;10753686;33;20094;-73
2022/11/03 06:29:04;;;;;;;17.60;12.25;;;15.70;86.50;;;;;;10741577;33;20484;-73
2022/11/03 06:35:09;;;;;;;16.37;11.52;;;15.70;86.70;;;;;;10753894;33;20029;-73
2022/11/03 06:41:19;;;;;;;16.20;11.82;;;15.70;86.60;;;;;;10753978;33;20043;-73
2022/11/03 06:47:23;;;;;;;16.52;11.43;;;15.80;86.50;;;;;;10753691;33;20029;-73
2022/11/03 06:53:31;;;;;;;15.77;13.35;;;15.80;86.50;;;;;;10753516;33;20028;-73
2022/11/03 06:59:33;;;;;;;17.17;11.95;;;15.80;86.70;;;;;;10751488;33;20029;-73
2022/11/03 07:05:36;;;;;;;16.48;12.65;;;15.80;86.80;;;;;;10752840;33;20032;-74
2022/11/03 07:11:59;;;;;;;17.00;11.98;;;15.90;86.80;;;;;;10757662;32;20403;-74
2022/11/03 07:18:03;;;;;;;17.92;12.70;;;15.90;86.70;;;;;;10783255;32;20098;-74
2022/11/03 07:24:26;;;;;;;19.75;12.55;;;15.90;86.60;;;;;;10789184;33;20392;-74
2022/11/03 07:30:35;;;;;;;13.90;10.25;;;16.00;86.60;;;;;;10789114;33;20051;-74
2022/11/03 07:37:02;;;;;;;17.58;12.20;;;16.00;86.50;;;;;;10789357;32;20028;-74
2022/11/03 07:43:21;;;;;;;19.33;13.62;;;15.90;86.40;;;;;;10788917;33;20047;-74
2022/11/03 07:49:27;;;;;;;;;;;15.90;86.50;;;;;;10771711;33;20024;-74
2022/11/03 07:55:29;;;;;;;18.73;12.37;;;15.80;86.40;;;;;;10788345;33;19950;-74
2022/11/03 08:01:36;;;;;;;21.98;15.00;;;15.90;86.50;;;;;;10762565;33;20025;-74
2022/11/03 08:07:41;;;;;;;18.42;13.32;;;15.90;86.40;;;;;;10746781;33;20028;-74
2022/11/03 08:13:43;;;;;;;17.62;13.30;;;16.00;86.40;;;;;;10751510;33;20037;-74
2022/11/03 08:19:45;;;;;;;23.30;15.43;;;16.00;86.30;;;;;;10747546;33;20026;-74
2022/11/03 08:25:48;;;;;;;24.23;19.90;;;16.10;86.30;;;;;;10753542;27;20091;-74
2022/11/03 08:31:50;;;;;;;20.35;16.37;;;16.20;86.10;;;;;;10738248;33;20329;-74
2022/11/03 08:37:53;;;;;;;19.62;15.27;;;16.20;86.10;;;;;;10749263;33;20028;-74
2022/11/03 08:43:55;;;;;;;27.17;19.08;;;16.20;86.10;;;;;;10752482;33;20033;-74
2022/11/03 08:49:57;;;;;;;31.40;21.17;;;16.30;86.20;;;;;;10757072;33;20401;-74
2022/11/03 08:55:59;;;;;;;23.10;19.80;;;16.30;86.10;;;;;;10756909;33;20033;-74
2022/11/03 09:02:01;;;;;;;18.50;14.27;;;16.40;86.10;;;;;;10756895;33;20025;-74
2022/11/03 09:08:03;;;;;;;29.85;22.45;;;16.60;86.00;;;;;;10756800;33;20025;-74
2022/11/03 09:14:08;;;;;;;20.92;17.08;;;16.70;85.90;;;;;;10752391;33;20409;-74
2022/11/03 09:20:12;;;;;;;22.80;15.75;;;16.80;85.90;;;;;;10743379;33;20043;-74
2022/11/03 09:26:14;;;;;;;28.77;20.10;;;16.80;85.90;;;;;;10751942;33;20037;-74
2022/11/03 09:32:23;;;;;;;37.38;17.25;;;16.80;85.80;;;;;;10756130;32;20025;-74
2022/11/03 09:38:25;;;;;;;25.30;19.15;;;16.90;85.80;;;;;;10755730;33;20079;-74
2022/11/03 09:44:27;;;;;;;24.00;15.48;;;16.90;85.60;;;;;;10742672;33;20168;-74
2022/11/03 09:50:31;;;;;;;39.10;26.20;;;16.90;85.70;;;;;;10755242;33;20032;-74
2022/11/03 09:56:35;;;;;;;27.17;19.15;;;16.80;85.60;;;;;;10754750;33;20044;-74
2022/11/03 10:02:42;;;;;;;26.62;18.12;;;16.90;85.60;;;;;;10742258;33;20068;-74
2022/11/03 10:08:45;;;;;;;29.33;17.65;;;16.80;85.70;;;;;;10755159;33;20028;-74
2022/11/03 10:14:48;;;;;;;26.25;16.62;;;16.80;85.80;;;;;;10750318;33;20098;-74
2022/11/03 10:20:50;;;;;;;27.80;17.12;;;16.90;85.80;;;;;;10754692;33;20044;-74
2022/11/03 10:26:56;;;;;;;25.60;17.92;;;16.90;85.60;;;;;;10754677;33;20099;-74
2022/11/03 10:32:58;;;;;;;29.23;19.77;;;17.00;85.50;;;;;;10741224;33;20087;-74
2022/11/03 10:39:37;;;;;;;26.02;17.37;;;17.10;85.40;;;;;;10754290;33;20357;-74
2022/11/03 10:45:39;;;;;;;;;;;17.20;85.30;;;;;;10754298;33;20047;-74
2022/11/03 10:51:44;;;;;;;26.33;18.67;;;17.20;85.20;;;;;;10750695;33;20326;-74
2022/11/03 10:57:48;;;;;;;27.25;22.45;;;17.20;85.20;;;;;;10740607;33;20025;-74
2022/11/03 11:03:51;;;;;;;32.22;23.75;;;17.30;85.20;;;;;;10752656;33;20048;-74
2022/11/03 11:09:54;;;;;;;34.72;22.85;;;17.40;85.10;;;;;;10753379;33;20028;-74
2022/11/03 11:15:58;;;;;;;41.70;30.08;;;17.70;84.60;;;;;;10740132;33;20358;-72
2022/11/03 11:22:10;;;;;;;55.28;35.13;;;17.80;84.40;;;;;;10739738;32;20029;-73
2022/11/03 11:28:18;;;;;;;38.72;32.30;;;18.00;84.10;;;;;;10752262;33;20051;-72
2022/11/03 11:34:20;;;;;;;39.05;29.55;;;18.10;83.80;;;;;;10752469;33;20050;-72
2022/11/03 11:40:35;;;;;;;40.40;30.92;;;18.10;83.70;;;;;;10748418;32;20051;-70
2022/11/03 11:46:41;;;;;;;52.88;35.78;;;18.20;83.80;;;;;;10752416;33;20047;-73
2022/11/03 11:53:03;;;;;;;46.58;31.73;;;18.20;83.60;;;;;;10752026;33;20426;-73
2022/11/03 11:59:16;;;;;;;49.25;34.42;;;18.20;83.70;;;;;;10751747;33;20016;-72
2022/11/03 12:05:27;;;;;;;44.88;29.67;;;18.20;83.80;;;;;;10751275;33;20055;-73
2022/11/03 12:11:46;;;;;;;42.10;31.35;;;18.20;83.70;;;;;;10750814;33;20047;-76
2022/11/03 12:17:49;;;;;;;45.43;29.40;;;18.20;83.60;;;;;;10735281;33;20053;-76
2022/11/03 12:23:52;;;;;;;49.45;30.40;;;18.30;83.60;;;;;;10738165;33;20028;-76
2022/11/03 12:29:56;;;;;;;40.70;29.83;;;18.30;83.70;;;;;;10747257;33;20021;-76
2022/11/03 12:35:59;;;;;;;54.90;35.28;;;18.20;83.70;;;;;;10751043;33;20025;-75
2022/11/03 12:42:01;;;;;;;36.70;25.98;;;18.20;83.70;;;;;;10750820;32;20055;-76
2022/11/03 12:48:04;;;;;;;35.17;21.55;;;18.20;83.80;;;;;;10750837;33;20016;-76
2022/11/03 12:54:06;;;;;;;41.30;28.23;;;18.20;83.80;;;;;;10750588;33;20037;-76
2022/11/03 13:00:09;;;;;;;40.85;29.70;;;18.20;83.80;;;;;;10750364;33;20033;-75
2022/11/03 13:06:32;;;;;;;38.10;24.52;;;18.20;83.70;;;;;;10750461;33;20398;-75
2022/11/03 13:12:35;;;;;;;33.60;27.02;;;18.30;83.60;;;;;;10750054;33;20355;-76
2022/11/03 13:18:37;;;;;;;42.78;26.87;;;18.30;83.60;;;;;;10750045;33;20323;-75
2022/11/03 13:24:39;;;;;;;34.63;24.08;;;18.30;83.50;;;;;;10750056;33;20021;-76
2022/11/03 13:30:41;;;;;;;37.45;26.35;;;18.30;83.40;;;;;;10738311;33;20345;-76
2022/11/03 13:37:01;;;;;;;32.70;22.70;;;18.30;83.50;;;;;;10756030;33;20028;-76
2022/11/03 13:43:03;;;;;;;35.13;24.75;;;18.30;83.40;;;;;;10755880;33;20397;-75
2022/11/03 13:49:05;;;;;;;31.08;22.77;;;18.30;83.50;;;;;;10755587;32;20071;-76
2022/11/03 13:55:10;;;;;;;20.92;17.90;;;18.30;83.40;;;;;;10755503;33;20060;-76
2022/11/03 14:01:12;;;;;;;23.08;16.42;;;18.40;83.50;;;;;;10755452;32;20047;-76
2022/11/03 14:07:17;;;;;;;25.50;19.40;;;18.40;83.40;;;;;;10738456;33;20047;-76
2022/11/03 14:13:20;;;;;;;27.08;18.15;;;18.30;83.50;;;;;;10754964;33;20033;-76
2022/11/03 14:19:22;;;;;;;21.83;17.08;;;18.30;83.50;;;;;;10753465;33;20037;-77
2022/11/03 14:25:24;;;;;;;22.33;15.82;;;18.30;83.50;;;;;;10754494;33;20020;-76
2022/11/03 14:31:27;;;;;;;32.67;20.37;;;18.30;83.60;;;;;;10754439;33;20051;-76
2022/11/03 14:37:38;;;;;;;35.95;21.50;;;18.30;83.50;;;;;;10753334;33;20381;-77
2022/11/03 14:43:41;;;;;;;31.05;22.90;;;18.30;83.60;;;;;;10753937;33;20039;-76
2022/11/03 14:49:45;;;;;;;35.95;23.65;;;18.20;83.60;;;;;;10741101;33;20348;-77
2022/11/03 14:55:47;;;;;;;33.80;25.25;;;18.20;83.70;;;;;;10740213;33;20103;-76
2022/11/03 15:01:51;;;;;;;38.97;24.37;;;18.20;83.80;;;;;;10753538;32;20033;-76
2022/11/03 15:07:53;;;;;;;35.85;24.65;;;18.10;83.70;;;;;;10749119;32;20060;-76
2022/11/03 15:13:55;;;;;;;32.90;23.92;;;18.10;83.90;;;;;;10753495;32;20366;-76
2022/11/03 15:19:57;;;;;;;40.53;24.73;;;18.00;83.90;;;;;;10769366;32;20036;-76
2022/11/03 15:26:00;;;;;;;44.95;26.12;;;18.00;84.10;;;;;;10789285;33;20344;-77
2022/11/03 15:32:03;;;;;;;43.20;25.60;;;18.00;84.10;;;;;;10772906;33;20171;-77
2022/11/03 15:38:05;;;;;;;36.28;23.45;;;17.80;84.20;;;;;;10789290;33;20020;-76
2022/11/03 15:44:07;;;;;;;35.17;23.67;;;17.80;84.30;;;;;;10788987;33;20070;-77
2022/11/03 15:50:11;;;;;;;32.35;21.12;;;17.80;84.40;;;;;;10788818;33;20025;-76
2022/11/03 15:56:14;;;;;;;29.42;18.87;;;17.70;84.40;;;;;;10787970;33;20055;-76
2022/11/03 16:02:17;;;;;;;30.40;19.73;;;17.70;84.50;;;;;;10784450;33;20019;-76
2022/11/03 16:08:20;;;;;;;31.58;23.73;;;17.60;84.50;;;;;;10788372;33;20340;-76
2022/11/03 16:14:49;;;;;;;32.38;19.73;;;17.50;84.60;;;;;;10788252;33;20028;-77
2022/11/03 16:20:51;;;;;;;33.05;21.35;;;17.50;84.60;;;;;;10783832;33;20032;-77
2022/11/03 16:26:53;;;;;;;29.70;20.80;;;17.50;84.60;;;;;;10455948;27;10005122;-77
2022/11/03 16:32:55;;;;;;;28.15;18.62;;;17.50;84.70;;;;;;10736466;33;20029;-77
2022/11/03 16:38:57;;;;;;;31.12;21.12;;;17.40;84.60;;;;;;10751166;33;20427;-77
2022/11/03 16:44:59;;;;;;;28.17;18.65;;;17.40;84.70;;;;;;10750892;33;20055;-77
2022/11/03 16:51:01;;;;;;;32.10;20.42;;;17.30;84.70;;;;;;10747211;33;20102;-77
2022/11/03 16:57:04;;;;;;;32.92;23.60;;;17.30;84.70;;;;;;10748704;32;20044;-77
2022/11/03 17:03:19;;;;;;;27.85;20.85;;;17.30;84.80;;;;;;10737718;33;20021;-77
2022/11/03 17:09:32;;;;;;;33.15;19.55;;;17.30;84.90;;;;;;10754348;33;20021;-77
2022/11/03 17:15:35;;;;;;;28.92;18.77;;;17.30;84.90;;;;;;10739876;32;20051;-77
2022/11/03 17:21:37;;;;;;;33.10;23.17;;;17.20;85.00;;;;;;10756476;33;20051;-77
2022/11/03 17:27:42;;;;;;;36.83;25.23;;;17.20;84.90;;;;;;10756405;33;20056;-77
2022/11/03 17:33:44;;;;;;;48.58;26.98;;;17.20;85.00;;;;;;10754316;33;20020;-77
2022/11/03 17:39:58;;;;;;;35.38;20.95;;;17.20;85.00;;;;;;10756094;33;20016;-77
2022/11/03 17:46:00;;;;;;;33.10;20.60;;;17.20;85.00;;;;;;10751842;33;20029;-77
2022/11/03 17:52:02;;;;;;;32.78;21.55;;;17.20;85.00;;;;;;10755498;33;20325;-77
2022/11/03 17:58:04;;;;;;;37.25;25.52;;;17.10;85.10;;;;;;10755379;33;20051;-76
2022/11/03 18:04:12;;;;;;;35.03;22.73;;;17.10;85.30;;;;;;10753373;33;20264;-77
2022/11/03 18:10:14;;;;;;;44.67;28.55;;;17.00;85.40;;;;;;10805529;32;20013;-77
2022/11/03 18:16:17;;;;;;;30.35;23.20;;;17.00;85.40;;;;;;10754512;33;20051;-75
2022/11/03 18:22:19;;;;;;;41.05;26.87;;;17.00;85.30;;;;;;10754605;32;20381;-75
2022/11/03 18:28:22;;;;;;;28.38;17.58;;;17.00;85.30;;;;;;10742878;33;20051;-74
2022/11/03 18:34:25;;;;;;;39.58;24.42;;;16.90;85.50;;;;;;10754404;33;20024;-74
2022/11/03 18:40:30;;;;;;;29.65;19.73;;;16.90;85.60;;;;;;10770989;33;20353;-75
2022/11/03 18:46:39;;;;;;;28.33;18.40;;;16.90;85.50;;;;;;10775832;33;20016;-74
2022/11/03 18:52:48;;;;;;;34.35;22.02;;;17.00;85.50;;;;;;10788065;33;20019;-75
2022/11/03 18:59:01;;;;;;;28.75;20.05;;;16.90;85.40;;;;;;10789833;33;20094;-74
2022/11/03 19:05:04;;;;;;;30.02;20.17;;;16.90;85.40;;;;;;10787264;33;20028;-74
2022/11/03 19:11:10;;;;;;;32.35;23.92;;;16.90;85.50;;;;;;10789679;33;20039;-75
2022/11/03 19:17:16;;;;;;;35.75;24.95;;;16.90;85.50;;;;;;10787291;33;20034;-75
2022/11/03 19:23:21;;;;;;;35.22;23.77;;;16.90;85.50;;;;;;10789222;32;20047;-75
2022/11/03 19:29:29;;;;;;;27.65;18.05;;;16.90;85.50;;;;;;10788220;33;20047;-74
2022/11/03 19:35:50;;;;;;;35.15;23.62;;;16.90;85.60;;;;;;10834777;32;20329;-77
2022/11/03 19:48:14;;;;;;;38.15;26.55;;;16.90;85.80;;;;;;10784672;33;20071;-75
2022/11/03 19:54:19;;;;;;;42.55;25.40;;;16.90;85.80;;;;;;10787529;33;20032;-74
2022/11/03 20:00:21;;;;;;;29.80;23.58;;;16.90;85.70;;;;;;10784533;33;20020;-74
2022/11/03 20:06:43;;;;;;;25.85;17.67;;;17.00;85.70;;;;;;10708802;32;20033;-76
2022/11/03 20:12:47;;;;;;;25.50;18.02;;;17.00;85.70;;;;;;10682775;33;20346;-77
2022/11/03 20:18:49;;;;;;;30.50;18.77;;;17.00;85.80;;;;;;10675252;32;20091;-77
2022/11/03 20:24:56;;;;;;;33.67;23.10;;;17.00;85.80;;;;;;10674799;33;20156;-77
2022/11/03 20:30:59;;;;;;;27.02;21.05;;;17.00;85.70;;;;;;10675734;33;20025;-77
2022/11/03 20:37:22;;;;;;;33.40;22.60;;;16.90;85.90;;;;;;10730293;32;20325;-77
2022/11/03 20:43:27;;;;;;;27.55;22.58;;;16.90;85.90;;;;;;10756236;33;20017;-76
2022/11/03 20:49:29;;;;;;;33.95;22.83;;;16.90;85.80;;;;;;10757108;33;20052;-77
2022/11/03 20:55:34;;;;;;;26.42;20.98;;;16.90;85.80;;;;;;10740073;33;20032;-77
2022/11/03 21:01:36;;;;;;;35.60;22.95;;;16.90;85.90;;;;;;10808191;32;20021;-77
2022/11/03 21:07:38;;;;;;;34.22;23.45;;;16.90;85.90;;;;;;10756304;32;20029;-77
2022/11/03 21:13:40;;;;;;;26.70;19.40;;;16.90;85.90;;;;;;10756488;33;20032;-75
2022/11/03 21:20:00;;;;;;;29.08;21.73;;;16.90;85.90;;;;;;10753081;33;20345;-74
2022/11/03 21:26:03;;;;;;;39.25;25.77;;;16.90;85.90;;;;;;10756411;33;20021;-75
2022/11/03 21:32:06;;;;;;;35.15;23.48;;;16.90;85.90;;;;;;10756243;33;20024;-76
2022/11/03 21:38:09;;;;;;;26.35;18.30;;;16.90;86.00;;;;;;10756013;33;20345;-75
2022/11/03 21:44:14;;;;;;;37.70;31.05;;;16.90;86.00;;;;;;10742963;33;20020;-75
2022/11/03 21:50:16;;;;;;;42.62;26.12;;;16.70;86.10;;;;;;10755277;33;20417;-75
2022/11/03 21:56:18;;;;;;;37.83;27.55;;;16.70;86.40;;;;;;10752432;33;20208;-75
2022/11/03 22:02:25;;;;;;;40.00;25.80;;;16.70;86.50;;;;;;10755039;33;20020;-76
2022/11/03 22:08:28;;;;;;;38.35;27.58;;;16.70;86.50;;;;;;10756753;32;20033;-76
2022/11/03 22:16:35;;;;;;;33.20;20.80;;;16.70;86.70;;;;;;10742061;33;20333;-75
2022/11/03 22:27:18;;;;;;;43.60;27.55;;;16.60;86.80;;;;;;10754546;33;20016;-76
2022/11/03 22:33:20;;;;;;;40.63;31.77;;;16.60;87.00;;;;;;10750772;33;20102;-76
2022/11/03 22:45:56;;;;;;;43.97;29.83;;;16.50;87.20;;;;;;10754063;33;20330;-76
2022/11/03 22:51:58;;;;;;;65.37;40.05;;;16.50;87.20;;;;;;10750156;33;20357;-76
2022/11/03 22:58:00;;;;;;;44.85;35.88;;;16.50;87.30;;;;;;10753647;33;20033;-77
2022/11/03 23:04:06;;;;;;;55.38;35.53;;;16.50;87.40;;;;;;10753564;33;20017;-76
2022/11/03 23:10:10;;;;;;;49.75;33.95;;;16.50;87.50;;;;;;10753530;33;20020;-76
2022/11/03 23:16:15;;;;;;;46.80;35.30;;;16.40;87.60;;;;;;10751225;33;20051;-75
2022/11/03 23:22:17;;;;;;;45.97;32.72;;;16.40;87.60;;;;;;10740202;33;20021;-75
2022/11/03 23:28:19;;;;;;;44.65;31.05;;;16.40;87.80;;;;;;10740013;32;20079;-75
2022/11/03 23:34:21;;;;;;;49.63;35.17;;;16.40;87.70;;;;;;10757055;33;20058;-75
2022/11/03 23:40:24;;;;;;;49.15;35.30;;;16.40;87.80;;;;;;10789012;33;20032;-74
2022/11/03 23:52:48;;;;;;;55.33;35.13;;;16.40;87.90;;;;;;10788957;33;20020;-73
2022/11/03 23:58:51;;;;;;;45.88;32.90;;;16.30;87.90;;;;;;10785777;33;20032;-73
